Time;durP1;ratioP1;P1;durP2;ratioP2;P2;SDS_P1;SDS_P2;PMS_P1;PMS_P2;Temp;Humidity;BMP_temperature;BMP_pressure;BME280_temperature;BME280_humidity;BME280_pressure;Samples;Min_cycle;Max_cycle;Signal;HPM_P1;HPM_P2
2021/01/03 00:01:30;;;;;;;141.60;55.65;;;4.70;99.90;;;;;;5072009;28;20021;-81
2021/01/03 00:03:55;;;;;;;126.45;50.67;;;4.70;99.90;;;;;;5055763;28;20024;-81
2021/01/03 00:06:21;;;;;;;131.88;54.55;;;4.70;99.90;;;;;;5056207;28;20089;-81
2021/01/03 00:08:48;;;;;;;134.88;55.28;;;4.70;99.90;;;;;;5057236;28;20044;-80
2021/01/03 00:11:14;;;;;;;119.00;46.15;;;4.70;99.90;;;;;;5058264;28;20024;-81
2021/01/03 00:13:39;;;;;;;107.85;45.25;;;4.70;99.90;;;;;;5057974;28;20444;-80
2021/01/03 00:16:05;;;;;;;132.90;51.78;;;4.60;99.90;;;;;;5056359;28;20024;-80
2021/01/03 00:18:31;;;;;;;130.68;53.08;;;4.50;99.90;;;;;;5076865;28;20044;-81
2021/01/03 00:20:56;;;;;;;138.23;52.47;;;4.50;99.90;;;;;;5054022;28;20039;-83
2021/01/03 00:23:22;;;;;;;126.32;48.50;;;4.50;99.90;;;;;;5045886;28;20033;-82
2021/01/03 00:25:48;;;;;;;133.70;50.40;;;4.50;99.90;;;;;;5053637;28;20443;-81
2021/01/03 00:28:13;;;;;;;137.65;52.72;;;4.50;99.90;;;;;;5058910;28;20068;-81
2021/01/03 00:30:39;;;;;;;135.70;53.65;;;4.50;99.90;;;;;;5057525;28;20020;-83
2021/01/03 00:33:05;;;;;;;123.85;50.75;;;4.60;99.90;;;;;;5080573;28;20037;-82
2021/01/03 00:35:33;;;;;;;124.72;50.42;;;4.60;99.90;;;;;;5055002;28;20020;-82
2021/01/03 00:38:07;;;;;;;129.05;50.15;;;4.50;99.90;;;;;;5053236;28;20433;-83
2021/01/03 00:40:34;;;;;;;120.47;49.65;;;4.50;99.90;;;;;;5053363;28;20025;-83
2021/01/03 00:42:59;;;;;;;121.65;48.65;;;4.50;99.90;;;;;;5053410;28;20048;-83
2021/01/03 00:45:25;;;;;;;119.80;48.97;;;4.50;99.90;;;;;;5049780;28;20072;-81
2021/01/03 00:47:51;;;;;;;126.55;50.60;;;4.40;99.90;;;;;;5053906;28;20393;-81
2021/01/03 00:50:17;;;;;;;114.90;47.47;;;4.40;99.90;;;;;;5056862;28;20028;-82
2021/01/03 00:52:43;;;;;;;135.48;51.53;;;4.50;99.90;;;;;;5062428;28;20067;-83
2021/01/03 00:55:09;;;;;;;126.65;49.85;;;4.40;99.90;;;;;;5049909;28;20020;-83
2021/01/03 00:57:36;;;;;;;119.95;48.03;;;4.50;99.90;;;;;;5050957;28;20024;-83
2021/01/03 01:00:12;;;;;;;130.85;49.97;;;4.50;99.90;;;;;;5041645;28;20392;-83
2021/01/03 01:02:37;;;;;;;107.47;44.03;;;4.50;99.90;;;;;;5059246;28;20029;-83
2021/01/03 01:05:04;;;;;;;107.70;43.33;;;4.60;99.90;;;;;;5049778;28;20111;-83
2021/01/03 01:07:29;;;;;;;111.43;44.17;;;4.60;99.90;;;;;;5049504;28;20028;-83
2021/01/03 01:09:55;;;;;;;106.13;45.05;;;4.50;99.90;;;;;;5050061;28;20028;-83
2021/01/03 01:12:20;;;;;;;108.57;42.70;;;4.60;99.90;;;;;;5050082;28;20021;-83
2021/01/03 01:14:46;;;;;;;128.10;45.80;;;4.60;99.90;;;;;;5040967;28;20039;-81
2021/01/03 01:17:12;;;;;;;99.18;41.38;;;4.60;99.90;;;;;;5048565;28;20033;-81
2021/01/03 01:19:37;;;;;;;102.03;41.65;;;4.50;99.90;;;;;;5051047;28;20104;-82
2021/01/03 01:22:03;;;;;;;97.53;42.88;;;4.60;99.90;;;;;;5049144;28;20033;-83
2021/01/03 01:24:28;;;;;;;100.30;40.72;;;4.60;99.90;;;;;;5049041;28;20028;-83
2021/01/03 01:26:54;;;;;;;92.13;37.25;;;4.60;99.90;;;;;;5049097;28;20470;-82
2021/01/03 01:29:19;;;;;;;101.28;35.90;;;4.60;99.90;;;;;;5051700;28;20032;-82
2021/01/03 01:31:45;;;;;;;94.93;38.90;;;4.60;99.90;;;;;;5056990;28;20432;-81
2021/01/03 01:34:11;;;;;;;101.20;36.78;;;4.60;99.90;;;;;;5058238;28;20032;-80
2021/01/03 01:36:36;;;;;;;88.88;37.03;;;4.60;99.90;;;;;;5069670;28;20032;-82
2021/01/03 01:39:02;;;;;;;92.45;35.75;;;4.50;99.90;;;;;;5050817;28;20032;-81
2021/01/03 01:41:28;;;;;;;94.65;39.03;;;4.50;99.90;;;;;;5040631;28;20490;-82
2021/01/03 01:43:53;;;;;;;83.68;32.83;;;4.50;99.90;;;;;;5048502;28;20136;-82
2021/01/03 01:46:36;;;;;;;102.55;38.58;;;4.50;99.90;;;;;;5051045;28;20027;-82
2021/01/03 01:49:09;;;;;;;95.72;36.13;;;4.40;99.90;;;;;;5064848;28;20121;-81
2021/01/03 01:51:46;;;;;;;91.50;35.70;;;4.40;99.90;;;;;;5065988;28;20017;-81
2021/01/03 01:54:20;;;;;;;87.18;36.63;;;4.50;99.90;;;;;;5054860;28;20032;-80
2021/01/03 01:56:58;;;;;;;94.40;37.28;;;4.40;99.90;;;;;;5062221;28;20033;-80
2021/01/03 01:59:38;;;;;;;95.03;38.35;;;4.50;99.90;;;;;;5043769;28;20116;-81
2021/01/03 02:02:23;;;;;;;97.13;38.03;;;4.50;99.90;;;;;;5048925;28;20088;-80
2021/01/03 02:04:56;;;;;;;92.78;34.03;;;4.40;99.90;;;;;;5049804;28;20025;-80
2021/01/03 02:07:33;;;;;;;89.15;37.67;;;4.40;99.90;;;;;;5048551;28;20031;-80
2021/01/03 02:10:19;;;;;;;101.40;39.65;;;4.40;99.90;;;;;;5049556;28;20485;-81
2021/01/03 02:12:48;;;;;;;90.78;37.83;;;4.50;99.90;;;;;;5057048;28;20025;-80
2021/01/03 02:15:23;;;;;;;93.85;39.45;;;4.40;99.90;;;;;;5056948;28;20453;-80
2021/01/03 02:17:48;;;;;;;105.65;41.92;;;4.30;99.90;;;;;;5063352;28;20028;-80
2021/01/03 02:20:16;;;;;;;100.18;37.45;;;4.30;99.90;;;;;;5067262;28;20030;-80
2021/01/03 02:22:47;;;;;;;98.10;37.97;;;4.30;99.90;;;;;;5066028;28;20391;-80
2021/01/03 02:25:16;;;;;;;102.00;38.10;;;4.30;99.90;;;;;;5064785;28;20029;-82
2021/01/03 02:28:03;;;;;;;86.97;36.05;;;4.40;99.90;;;;;;5049327;28;20033;-82
2021/01/03 02:30:29;;;;;;;98.90;39.40;;;4.30;99.90;;;;;;5049358;28;20120;-80
2021/01/03 02:33:14;;;;;;;85.97;33.17;;;4.30;99.90;;;;;;5047792;28;20047;-80
2021/01/03 02:35:43;;;;;;;88.30;36.55;;;4.30;99.90;;;;;;5048198;28;20433;-82
2021/01/03 02:38:09;;;;;;;93.78;38.60;;;4.30;99.90;;;;;;5048646;28;20035;-82
2021/01/03 02:40:35;;;;;;;86.93;36.20;;;4.30;99.90;;;;;;5048331;28;20033;-80
2021/01/03 02:43:01;;;;;;;90.18;35.38;;;4.30;99.90;;;;;;5047314;28;20028;-81
2021/01/03 02:45:30;;;;;;;100.47;36.75;;;4.30;99.90;;;;;;5052103;28;20096;-82
2021/01/03 02:48:08;;;;;;;88.50;36.58;;;4.30;99.90;;;;;;5051171;28;20094;-81
2021/01/03 02:50:34;;;;;;;85.03;35.13;;;4.30;99.90;;;;;;5052208;28;20090;-80
2021/01/03 02:53:00;;;;;;;87.78;32.83;;;4.30;99.90;;;;;;5064232;28;20460;-80
2021/01/03 02:55:26;;;;;;;98.35;37.90;;;4.30;99.90;;;;;;5071048;28;20119;-81
2021/01/03 02:57:51;;;;;;;95.55;38.17;;;4.20;99.90;;;;;;5062301;28;20020;-84
2021/01/03 03:00:24;;;;;;;109.75;37.47;;;4.20;99.90;;;;;;5051407;28;20036;-82
2021/01/03 03:02:50;;;;;;;96.30;39.55;;;4.20;99.90;;;;;;5051188;28;20021;-82
2021/01/03 03:05:17;;;;;;;98.47;37.85;;;4.20;99.90;;;;;;5050973;28;20032;-81
2021/01/03 03:07:42;;;;;;;104.30;36.22;;;4.20;99.90;;;;;;5055635;28;20051;-81
2021/01/03 03:10:08;;;;;;;85.30;35.65;;;4.30;99.90;;;;;;5051187;28;20059;-82
2021/01/03 03:12:34;;;;;;;98.60;37.45;;;4.30;99.90;;;;;;5060706;28;20028;-82
2021/01/03 03:15:00;;;;;;;94.47;36.47;;;4.30;99.90;;;;;;5050964;28;20420;-82
2021/01/03 03:17:26;;;;;;;92.60;35.92;;;4.30;99.90;;;;;;5050605;28;20094;-81
2021/01/03 03:19:51;;;;;;;102.45;38.78;;;4.30;99.90;;;;;;5067247;28;20020;-81
2021/01/03 03:22:17;;;;;;;92.13;36.13;;;4.30;99.90;;;;;;5050883;28;20549;-80
2021/01/03 03:24:42;;;;;;;91.85;36.05;;;4.20;99.90;;;;;;5052483;28;20024;-81
2021/01/03 03:27:08;;;;;;;102.57;37.05;;;4.20;99.90;;;;;;5051626;28;20033;-80
2021/01/03 03:29:36;;;;;;;107.22;38.75;;;4.20;99.90;;;;;;5087883;28;20040;-80
2021/01/03 03:32:02;;;;;;;105.13;40.65;;;4.20;99.90;;;;;;5068765;28;20024;-82
2021/01/03 03:34:27;;;;;;;101.57;37.85;;;4.20;99.90;;;;;;5051066;28;20803;-81
2021/01/03 03:36:54;;;;;;;104.85;39.17;;;4.20;99.90;;;;;;5050177;28;20476;-82
2021/01/03 03:39:19;;;;;;;103.20;35.53;;;4.20;99.90;;;;;;5051391;28;20049;-81
2021/01/03 03:41:45;;;;;;;103.43;38.95;;;4.20;99.90;;;;;;5042148;28;20116;-80
2021/01/03 03:44:11;;;;;;;96.15;37.78;;;4.20;99.90;;;;;;5068172;28;20098;-81
2021/01/03 03:46:36;;;;;;;106.60;38.65;;;4.20;99.90;;;;;;5050871;28;20033;-81
2021/01/03 03:49:02;;;;;;;99.18;36.75;;;4.20;99.90;;;;;;5066295;28;20078;-82
2021/01/03 03:51:27;;;;;;;95.38;36.78;;;4.20;99.90;;;;;;5070203;28;20077;-80
2021/01/03 03:53:53;;;;;;;106.32;38.45;;;4.20;99.90;;;;;;5053335;28;20035;-80
2021/01/03 03:56:19;;;;;;;97.15;38.60;;;4.20;99.90;;;;;;5050423;28;20029;-82
2021/01/03 03:58:44;;;;;;;90.53;39.65;;;4.20;99.90;;;;;;5036201;28;20546;-81
2021/01/03 04:01:11;;;;;;;97.45;37.50;;;4.20;99.90;;;;;;5055387;28;20021;-82
2021/01/03 04:03:36;;;;;;;109.72;38.85;;;4.10;99.90;;;;;;5067945;28;20028;-82
2021/01/03 04:06:03;;;;;;;101.15;36.30;;;4.10;99.90;;;;;;5091795;28;20100;-82
2021/01/03 04:08:29;;;;;;;95.53;37.20;;;4.10;99.90;;;;;;5059819;28;20501;-82
2021/01/03 04:10:55;;;;;;;103.57;35.95;;;4.10;99.90;;;;;;5072572;28;20507;-81
2021/01/03 04:13:21;;;;;;;94.38;35.67;;;4.10;99.90;;;;;;5054427;28;20060;-82
2021/01/03 04:15:46;;;;;;;89.88;35.67;;;4.10;99.90;;;;;;5056553;28;20028;-81
2021/01/03 04:18:12;;;;;;;103.55;39.25;;;4.10;99.90;;;;;;5071914;28;20033;-82
2021/01/03 04:20:38;;;;;;;95.57;38.97;;;4.10;99.90;;;;;;5054292;28;20032;-82
2021/01/03 04:23:08;;;;;;;103.20;40.42;;;4.10;99.90;;;;;;5054232;28;20040;-82
2021/01/03 04:25:35;;;;;;;104.18;37.28;;;4.20;99.90;;;;;;5054097;28;20021;-81
2021/01/03 04:28:00;;;;;;;102.35;37.95;;;4.20;99.90;;;;;;5056039;28;20028;-82
2021/01/03 04:30:26;;;;;;;88.53;34.65;;;4.20;99.90;;;;;;5068754;28;20028;-80
2021/01/03 04:32:53;;;;;;;99.80;38.38;;;4.10;99.90;;;;;;5071261;28;20050;-80
2021/01/03 04:35:20;;;;;;;102.70;39.35;;;4.10;99.90;;;;;;5069797;28;20081;-81
2021/01/03 04:37:46;;;;;;;98.20;37.65;;;4.10;99.90;;;;;;5065033;28;20074;-82
2021/01/03 04:40:19;;;;;;;111.78;39.38;;;4.10;99.90;;;;;;5069781;28;20379;-82
2021/01/03 04:42:45;;;;;;;88.97;36.38;;;4.20;99.90;;;;;;5053279;28;20035;-82
2021/01/03 04:45:18;;;;;;;97.20;38.28;;;4.20;99.90;;;;;;5062378;28;20044;-82
2021/01/03 04:47:57;;;;;;;108.07;40.88;;;4.10;99.90;;;;;;5065651;28;20562;-82
2021/01/03 04:50:43;;;;;;;96.95;37.75;;;4.10;99.90;;;;;;5053754;28;20508;-82
2021/01/03 04:53:12;;;;;;;99.93;37.75;;;4.10;99.90;;;;;;5060004;28;20449;-82
2021/01/03 04:55:44;;;;;;;99.55;38.90;;;4.20;99.90;;;;;;5090853;28;20077;-82
2021/01/03 04:58:20;;;;;;;90.78;34.80;;;4.20;99.90;;;;;;5056854;28;20017;-82
2021/01/03 05:01:02;;;;;;;102.57;41.58;;;4.20;99.90;;;;;;5052764;28;20024;-80
2021/01/03 05:03:37;;;;;;;98.95;38.35;;;4.10;99.90;;;;;;5051970;28;20446;-80
2021/01/03 05:06:10;;;;;;;100.22;37.15;;;4.10;99.90;;;;;;5067735;28;20031;-81
2021/01/03 05:08:43;;;;;;;100.47;38.63;;;4.10;99.90;;;;;;5057364;28;20043;-82
2021/01/03 05:11:20;;;;;;;120.82;44.88;;;4.10;99.90;;;;;;5052730;28;20024;-82
2021/01/03 05:13:58;;;;;;;109.35;41.75;;;4.10;99.90;;;;;;5064446;28;20090;-82
2021/01/03 05:16:23;;;;;;;111.75;40.95;;;4.10;99.90;;;;;;5054483;28;20025;-80
2021/01/03 05:18:49;;;;;;;106.00;39.03;;;4.10;99.90;;;;;;5070476;28;20066;-80
2021/01/03 05:21:14;;;;;;;110.03;40.22;;;4.00;99.90;;;;;;5052954;28;20517;-80
2021/01/03 05:23:59;;;;;;;110.03;38.97;;;4.00;99.90;;;;;;5052748;28;20031;-81
2021/01/03 05:26:34;;;;;;;111.93;40.92;;;4.10;99.90;;;;;;5070733;28;20465;-80
2021/01/03 05:29:00;;;;;;;108.53;40.05;;;4.10;99.90;;;;;;5052027;28;20044;-80
2021/01/03 05:31:28;;;;;;;99.32;33.63;;;4.00;99.90;;;;;;5056110;28;20123;-80
2021/01/03 05:34:00;;;;;;;109.78;41.90;;;4.10;99.90;;;;;;5072376;28;20036;-80
2021/01/03 05:36:33;;;;;;;120.72;44.08;;;4.00;99.90;;;;;;5069986;28;20021;-81
2021/01/03 05:39:03;;;;;;;119.43;40.97;;;4.10;99.90;;;;;;5069256;28;20021;-82
2021/01/03 05:42:06;;;;;;;128.70;44.85;;;4.00;99.90;;;;;;5057225;28;20385;-82
2021/01/03 05:44:38;;;;;;;112.13;42.65;;;4.00;99.90;;;;;;5068356;28;20102;-82
2021/01/03 05:47:20;;;;;;;119.03;42.17;;;3.90;99.90;;;;;;5074774;28;20112;-80
2021/01/03 05:50:05;;;;;;;121.90;42.00;;;3.90;99.90;;;;;;5062066;28;20047;-80
2021/01/03 05:52:33;;;;;;;111.50;39.67;;;3.90;99.90;;;;;;5059090;28;20381;-80
2021/01/03 05:55:04;;;;;;;113.40;40.20;;;4.00;99.90;;;;;;5069898;28;20051;-81
2021/01/03 05:57:32;;;;;;;115.57;41.58;;;3.90;99.90;;;;;;5051930;28;20362;-82
2021/01/03 05:59:58;;;;;;;127.32;43.20;;;3.90;99.90;;;;;;5051966;28;20549;-82
2021/01/03 06:02:28;;;;;;;119.15;44.03;;;3.90;99.90;;;;;;5051252;28;20103;-81
2021/01/03 06:05:12;;;;;;;115.10;41.92;;;3.90;99.90;;;;;;5035311;28;20056;-80
2021/01/03 06:07:38;;;;;;;113.07;38.13;;;3.80;99.90;;;;;;5045785;28;20024;-80
2021/01/03 06:10:32;;;;;;;125.22;42.78;;;3.80;99.90;;;;;;5051512;28;20089;-81
2021/01/03 06:12:59;;;;;;;105.53;37.10;;;3.80;99.90;;;;;;5061542;28;20038;-81
2021/01/03 06:15:29;;;;;;;105.93;34.90;;;3.80;99.90;;;;;;5069144;28;20050;-82
2021/01/03 06:17:59;;;;;;;119.15;43.70;;;3.80;99.90;;;;;;5052653;28;20028;-82
2021/01/03 06:20:27;;;;;;;109.50;42.28;;;3.70;99.90;;;;;;5051928;28;20113;-82
2021/01/03 06:22:59;;;;;;;125.35;42.35;;;3.60;99.90;;;;;;5059614;28;20055;-83
2021/01/03 06:25:33;;;;;;;114.10;41.17;;;3.70;99.90;;;;;;5064338;28;20024;-80
2021/01/03 06:28:10;;;;;;;113.90;42.10;;;3.60;99.90;;;;;;5054151;28;20034;-81
2021/01/03 06:30:38;;;;;;;108.38;41.35;;;3.60;99.90;;;;;;5055545;28;20035;-82
2021/01/03 06:33:36;;;;;;;124.45;43.05;;;3.60;99.90;;;;;;5048214;28;20040;-82
2021/01/03 06:36:31;;;;;;;111.43;40.63;;;3.60;99.90;;;;;;5080793;28;20477;-81
2021/01/03 06:39:02;;;;;;;106.32;35.08;;;3.70;99.90;;;;;;4950173;28;20043;-81
2021/01/03 06:41:45;;;;;;;85.22;32.40;;;3.70;99.90;;;;;;4968755;28;20119;-82
2021/01/03 06:44:34;;;;;;;109.20;38.25;;;3.60;99.90;;;;;;4965189;28;20043;-82
2021/01/03 06:47:18;;;;;;;95.95;35.97;;;3.60;99.90;;;;;;4962889;28;20026;-82
2021/01/03 06:49:54;;;;;;;98.30;37.20;;;3.60;99.90;;;;;;4967938;28;20137;-81
2021/01/03 06:52:42;;;;;;;101.40;37.05;;;3.60;99.90;;;;;;4968296;28;20054;-81
2021/01/03 06:55:38;;;;;;;97.32;35.33;;;3.60;99.90;;;;;;4967769;28;20038;-82
2021/01/03 06:58:03;;;;;;;85.25;33.78;;;3.60;99.90;;;;;;4970707;28;20038;-82
2021/01/03 07:00:38;;;;;;;99.35;34.28;;;3.60;99.90;;;;;;4968451;28;20027;-81
2021/01/03 07:03:06;;;;;;;73.13;29.30;;;3.60;99.90;;;;;;4967442;28;20035;-80
2021/01/03 07:05:32;;;;;;;78.50;31.63;;;3.60;99.90;;;;;;4973874;28;20105;-82
2021/01/03 07:08:08;;;;;;;88.63;30.73;;;3.60;99.90;;;;;;4978215;28;20035;-82
2021/01/03 07:10:36;;;;;;;92.57;34.85;;;3.60;99.90;;;;;;4953965;28;20077;-82
2021/01/03 07:13:02;;;;;;;87.35;32.92;;;3.60;99.90;;;;;;4968893;28;20496;-82
2021/01/03 07:15:28;;;;;;;78.93;30.35;;;3.60;99.90;;;;;;5023199;28;20055;-81
2021/01/03 07:17:56;;;;;;;83.40;30.95;;;3.60;99.90;;;;;;5056115;28;20033;-81
2021/01/03 07:20:31;;;;;;;81.55;29.63;;;3.60;99.90;;;;;;5051010;28;20447;-80
2021/01/03 07:23:08;;;;;;;72.20;28.17;;;3.60;99.90;;;;;;5068944;28;20028;-81
2021/01/03 07:25:44;;;;;;;62.47;22.48;;;3.70;99.90;;;;;;5050435;28;20036;-80
2021/01/03 07:28:16;;;;;;;78.10;30.20;;;3.60;99.90;;;;;;5074575;28;20487;-80
2021/01/03 07:30:57;;;;;;;81.45;31.08;;;3.60;99.90;;;;;;5078668;28;20028;-81
2021/01/03 07:33:48;;;;;;;81.47;30.38;;;3.60;99.90;;;;;;5052495;28;20020;-80
2021/01/03 07:36:34;;;;;;;83.65;25.58;;;3.60;99.90;;;;;;5073847;28;20035;-80
2021/01/03 07:39:16;;;;;;;81.82;28.90;;;3.60;99.90;;;;;;5092342;28;20024;-80
2021/01/03 07:41:42;;;;;;;;;;;3.50;99.90;;;;;;5065125;28;20028;-81
2021/01/03 07:44:25;;;;;;;65.53;26.95;;;3.50;99.90;;;;;;5050733;28;19925;-81
2021/01/03 07:46:57;;;;;;;75.93;29.63;;;3.50;99.90;;;;;;5050773;28;20029;-81
2021/01/03 07:49:33;;;;;;;75.53;27.73;;;3.60;99.90;;;;;;5050804;28;20056;-81
2021/01/03 07:52:02;;;;;;;61.53;25.23;;;3.60;99.90;;;;;;5051335;28;20031;-80
2021/01/03 07:54:28;;;;;;;83.03;31.27;;;3.60;99.90;;;;;;5050709;28;20033;-80
2021/01/03 07:56:54;;;;;;;77.57;26.92;;;3.60;99.90;;;;;;5050831;28;20111;-80
2021/01/03 07:59:20;;;;;;;63.58;26.67;;;3.60;99.90;;;;;;5050218;28;20049;-80
2021/01/03 08:01:52;;;;;;;65.53;26.88;;;3.70;99.90;;;;;;5051758;28;20025;-81
2021/01/03 08:04:20;;;;;;;73.47;28.77;;;3.70;99.90;;;;;;5048350;28;20025;-81
2021/01/03 08:06:46;;;;;;;76.05;27.98;;;3.70;99.90;;;;;;5065291;28;20024;-82
2021/01/03 08:09:21;;;;;;;69.07;27.10;;;3.70;99.90;;;;;;5056568;28;20071;-82
2021/01/03 08:11:47;;;;;;;71.03;26.52;;;3.70;99.90;;;;;;5055497;28;20522;-82
2021/01/03 08:14:25;;;;;;;78.88;28.33;;;3.70;99.90;;;;;;5051287;28;20049;-82
2021/01/03 08:16:51;;;;;;;67.82;27.25;;;3.70;99.90;;;;;;5050594;28;20080;-82
2021/01/03 08:19:22;;;;;;;73.10;27.58;;;3.80;99.90;;;;;;5051010;28;20057;-82
2021/01/03 08:22:00;;;;;;;83.68;27.98;;;3.80;99.90;;;;;;5050593;28;20036;-82
2021/01/03 08:24:28;;;;;;;86.45;29.77;;;3.80;99.90;;;;;;5051124;28;20029;-82
2021/01/03 08:27:13;;;;;;;82.72;30.05;;;3.70;99.90;;;;;;5057140;28;20071;-82
2021/01/03 08:29:46;;;;;;;78.57;30.20;;;3.70;99.90;;;;;;5050060;28;20407;-81
2021/01/03 08:32:22;;;;;;;93.05;34.42;;;3.60;99.90;;;;;;5038712;28;20043;-82
2021/01/03 08:34:48;;;;;;;92.13;34.35;;;3.60;99.90;;;;;;5013000;28;20033;-83
2021/01/03 08:37:24;;;;;;;90.90;33.78;;;3.60;99.90;;;;;;5028776;28;20521;-82
2021/01/03 08:39:53;;;;;;;91.65;33.45;;;3.60;99.90;;;;;;5015740;28;20029;-82
2021/01/03 08:42:32;;;;;;;87.95;33.33;;;3.60;99.90;;;;;;5036998;28;20085;-82
2021/01/03 08:44:58;;;;;;;104.60;35.45;;;3.60;99.90;;;;;;5015762;28;20061;-82
2021/01/03 08:47:37;;;;;;;101.93;34.25;;;3.60;99.90;;;;;;5028070;28;20073;-83
2021/01/03 08:50:06;;;;;;;95.47;34.08;;;3.50;99.90;;;;;;5019140;28;20044;-81
2021/01/03 08:52:31;;;;;;;88.38;33.20;;;3.50;99.90;;;;;;5012361;28;20064;-80
2021/01/03 08:55:09;;;;;;;85.78;32.97;;;3.60;99.90;;;;;;5028702;28;20498;-84
2021/01/03 08:57:34;;;;;;;90.38;35.15;;;3.60;99.90;;;;;;5011455;28;20159;-82
2021/01/03 09:00:00;;;;;;;89.63;33.35;;;3.60;99.90;;;;;;5028895;28;20041;-81
2021/01/03 09:02:28;;;;;;;80.85;31.90;;;3.60;99.90;;;;;;5016247;28;20040;-81
2021/01/03 09:05:00;;;;;;;91.75;30.65;;;3.60;99.90;;;;;;5049281;28;20027;-82
2021/01/03 09:07:30;;;;;;;89.38;31.38;;;3.60;99.90;;;;;;5049116;28;20025;-82
2021/01/03 09:10:01;;;;;;;84.20;30.10;;;3.60;99.90;;;;;;5050977;28;20116;-81
2021/01/03 09:12:42;;;;;;;84.20;32.65;;;3.60;99.90;;;;;;5048726;28;20044;-82
2021/01/03 09:15:16;;;;;;;99.13;32.67;;;3.60;99.90;;;;;;5048931;28;20028;-80
2021/01/03 09:17:42;;;;;;;86.38;30.42;;;3.70;99.90;;;;;;5048305;28;20108;-81
2021/01/03 09:20:52;;;;;;;79.45;30.42;;;3.60;99.90;;;;;;5050756;28;20021;-82
2021/01/03 09:23:25;;;;;;;76.75;28.52;;;3.70;99.90;;;;;;4989148;28;20165;-82
2021/01/03 09:25:56;;;;;;;72.72;27.13;;;3.60;99.90;;;;;;4987940;28;20049;-82
2021/01/03 09:28:31;;;;;;;72.70;28.23;;;3.60;99.90;;;;;;4985048;28;20049;-82
2021/01/03 09:31:15;;;;;;;74.28;25.23;;;3.60;99.90;;;;;;4986228;28;20368;-83
2021/01/03 09:33:46;;;;;;;68.53;23.88;;;3.70;99.90;;;;;;4987593;28;20089;-82
2021/01/03 09:36:40;;;;;;;69.82;28.05;;;3.70;99.90;;;;;;4985397;28;20058;-80
2021/01/03 09:39:27;;;;;;;56.85;21.15;;;3.70;99.90;;;;;;4975789;28;20037;-81
2021/01/03 09:42:29;;;;;;;66.07;23.58;;;3.70;99.90;;;;;;4988251;28;20403;-80
2021/01/03 09:45:13;;;;;;;63.35;24.50;;;3.70;99.90;;;;;;4982264;28;20108;-82
2021/01/03 09:47:42;;;;;;;72.18;25.80;;;3.60;99.90;;;;;;4973442;28;20038;-82
2021/01/03 09:50:45;;;;;;;76.53;25.05;;;3.70;99.90;;;;;;4988413;28;20145;-80
2021/01/03 09:53:20;;;;;;;59.13;23.48;;;3.70;99.90;;;;;;4993675;28;20543;-80
2021/01/03 09:56:07;;;;;;;65.95;24.70;;;3.70;99.90;;;;;;5047480;28;20039;-80
2021/01/03 09:58:38;;;;;;;60.92;23.35;;;3.80;99.90;;;;;;5049266;28;20021;-80
2021/01/03 10:01:05;;;;;;;65.13;23.52;;;3.80;99.90;;;;;;5049669;28;20355;-82
2021/01/03 10:03:45;;;;;;;47.45;17.83;;;3.80;99.90;;;;;;5047845;28;20409;-82
2021/01/03 10:06:32;;;;;;;43.17;20.25;;;3.90;99.90;;;;;;5063072;28;20120;-81
2021/01/03 10:09:35;;;;;;;39.95;17.00;;;3.90;99.90;;;;;;5049470;28;20398;-81
2021/01/03 10:12:17;;;;;;;30.00;14.25;;;4.00;99.90;;;;;;5049431;28;20044;-81
2021/01/03 10:14:43;;;;;;;24.25;12.05;;;4.00;99.90;;;;;;5037669;28;20029;-82
2021/01/03 10:17:32;;;;;;;23.60;10.88;;;4.20;99.90;;;;;;5049564;28;20037;-82
2021/01/03 10:19:58;;;;;;;23.70;10.75;;;4.20;99.90;;;;;;5046360;28;20095;-81
2021/01/03 10:22:43;;;;;;;15.85;7.43;;;4.30;99.90;;;;;;5047977;28;20465;-81
2021/01/03 10:25:13;;;;;;;20.45;8.32;;;4.40;99.90;;;;;;5049273;28;20378;-82
2021/01/03 10:27:39;;;;;;;17.85;7.47;;;4.40;99.90;;;;;;5047601;28;20397;-82
2021/01/03 10:30:07;;;;;;;21.27;8.48;;;4.40;99.90;;;;;;5047635;28;20036;-81
2021/01/03 10:32:35;;;;;;;18.38;7.53;;;4.50;99.90;;;;;;5031591;28;20074;-81
2021/01/03 10:35:03;;;;;;;19.58;8.18;;;4.60;99.90;;;;;;5054095;28;20037;-81
2021/01/03 10:37:28;;;;;;;17.77;8.23;;;4.60;99.90;;;;;;5061997;28;20024;-81
2021/01/03 10:39:54;;;;;;;14.50;7.65;;;4.60;99.90;;;;;;5048477;28;20036;-82
2021/01/03 10:42:20;;;;;;;17.92;8.98;;;4.60;99.90;;;;;;5048944;28;20068;-82
2021/01/03 10:44:45;;;;;;;16.25;7.90;;;4.60;99.90;;;;;;5047451;28;20076;-82
2021/01/03 10:47:11;;;;;;;20.92;9.82;;;4.60;99.90;;;;;;5047550;28;20029;-82
2021/01/03 10:49:37;;;;;;;17.38;6.00;;;4.60;99.90;;;;;;5047886;28;20501;-82
2021/01/03 10:52:04;;;;;;;19.35;9.10;;;4.60;99.90;;;;;;5047621;28;20555;-82
2021/01/03 10:54:30;;;;;;;21.33;7.93;;;4.50;99.90;;;;;;5047689;28;20025;-81
2021/01/03 10:56:57;;;;;;;27.58;11.55;;;4.60;99.90;;;;;;5047543;28;20032;-82
2021/01/03 10:59:24;;;;;;;21.92;10.07;;;4.50;99.90;;;;;;5048200;28;20476;-81
2021/01/03 11:01:51;;;;;;;24.92;11.57;;;4.60;99.90;;;;;;5047638;28;20119;-80
2021/01/03 11:04:19;;;;;;;24.48;10.90;;;4.60;99.90;;;;;;5048874;28;20029;-80
2021/01/03 11:06:47;;;;;;;25.85;12.43;;;4.60;99.90;;;;;;5048380;28;20025;-80
2021/01/03 11:09:28;;;;;;;26.80;11.27;;;4.60;99.90;;;;;;5051133;28;20068;-80
2021/01/03 11:12:02;;;;;;;25.50;11.88;;;4.80;99.90;;;;;;5051130;28;20055;-80
2021/01/03 11:14:28;;;;;;;27.85;12.93;;;4.80;99.90;;;;;;5052735;28;20044;-80
2021/01/03 11:16:54;;;;;;;30.73;14.38;;;4.80;99.90;;;;;;5051332;28;20033;-80
2021/01/03 11:19:20;;;;;;;27.05;12.75;;;4.70;99.90;;;;;;5051924;28;20029;-80
2021/01/03 11:21:46;;;;;;;26.60;12.43;;;4.80;99.90;;;;;;5052739;28;20393;-80
2021/01/03 11:24:13;;;;;;;26.85;13.15;;;4.70;99.90;;;;;;5051456;28;20025;-81
2021/01/03 11:26:43;;;;;;;25.92;12.75;;;4.80;99.90;;;;;;5050991;28;20032;-80
2021/01/03 11:29:13;;;;;;;26.55;13.18;;;4.90;99.90;;;;;;5051236;28;20067;-81
2021/01/03 11:31:43;;;;;;;25.42;12.98;;;4.90;99.90;;;;;;5052780;28;20481;-81
2021/01/03 11:34:12;;;;;;;25.35;12.75;;;4.90;99.90;;;;;;5051125;28;20036;-80
2021/01/03 11:36:38;;;;;;;27.67;13.77;;;4.80;99.90;;;;;;5051265;28;20033;-80
2021/01/03 11:39:06;;;;;;;29.98;13.55;;;4.70;99.90;;;;;;5051212;28;20390;-80
2021/01/03 11:41:32;;;;;;;29.95;12.60;;;4.70;99.90;;;;;;5051247;28;20090;-80
2021/01/03 11:43:58;;;;;;;30.27;12.65;;;4.60;99.90;;;;;;5050715;28;20451;-80
2021/01/03 11:46:24;;;;;;;19.67;9.85;;;4.60;99.90;;;;;;5051521;28;20029;-80
2021/01/03 11:48:51;;;;;;;23.33;10.77;;;4.50;99.90;;;;;;5050636;28;20044;-80
2021/01/03 11:51:17;;;;;;;25.90;11.93;;;4.50;99.90;;;;;;5050798;28;20060;-80
2021/01/03 11:53:43;;;;;;;21.83;9.93;;;4.40;99.90;;;;;;5052371;28;20064;-79
2021/01/03 11:56:09;;;;;;;24.20;12.38;;;4.30;99.90;;;;;;5051003;28;20099;-79
2021/01/03 11:58:34;;;;;;;23.67;11.02;;;4.40;99.90;;;;;;5051883;28;20047;-80
2021/01/03 12:01:01;;;;;;;22.50;11.15;;;4.40;99.90;;;;;;5051042;28;20052;-79
2021/01/03 12:03:26;;;;;;;22.15;10.43;;;4.40;99.90;;;;;;5050800;28;20028;-80
2021/01/03 12:05:53;;;;;;;20.83;9.52;;;4.40;99.90;;;;;;5050473;28;20022;-80
2021/01/03 12:08:18;;;;;;;15.88;8.05;;;4.30;99.90;;;;;;5051037;28;20064;-81
2021/01/03 12:10:44;;;;;;;22.20;9.55;;;4.20;99.90;;;;;;5050343;28;20056;-80
2021/01/03 12:13:10;;;;;;;22.80;11.45;;;4.10;99.90;;;;;;5051106;28;20099;-80
2021/01/03 12:15:35;;;;;;;21.15;12.10;;;4.10;99.90;;;;;;5050549;28;20032;-80
2021/01/03 12:18:01;;;;;;;16.88;9.85;;;4.10;99.90;;;;;;5049990;28;20429;-80
2021/01/03 12:20:28;;;;;;;32.88;10.35;;;4.10;99.90;;;;;;5050541;28;20028;-80
2021/01/03 12:22:54;;;;;;;18.63;8.05;;;4.10;99.90;;;;;;5051499;28;20025;-81
2021/01/03 12:25:19;;;;;;;21.48;9.23;;;4.00;99.90;;;;;;5051723;28;20040;-80
2021/01/03 12:27:45;;;;;;;19.35;10.02;;;4.00;99.90;;;;;;5030939;28;20331;-80
2021/01/03 12:30:13;;;;;;;19.48;10.68;;;4.10;99.90;;;;;;5047924;28;20037;-81
2021/01/03 12:32:39;;;;;;;28.00;10.38;;;4.10;99.90;;;;;;5050652;28;20032;-81
2021/01/03 12:35:07;;;;;;;29.33;12.25;;;4.10;99.90;;;;;;5050780;28;20021;-80
2021/01/03 12:37:32;;;;;;;18.38;8.77;;;4.10;99.90;;;;;;5050414;28;20036;-81
2021/01/03 12:39:58;;;;;;;18.25;8.52;;;4.10;99.90;;;;;;5050468;28;20477;-80
2021/01/03 12:42:25;;;;;;;26.63;11.05;;;4.10;99.90;;;;;;5049781;28;20438;-80
2021/01/03 12:44:52;;;;;;;20.55;10.23;;;4.10;99.90;;;;;;5049021;28;20049;-81
2021/01/03 12:47:19;;;;;;;19.10;10.25;;;4.10;99.90;;;;;;5049133;28;20512;-81
2021/01/03 12:49:44;;;;;;;20.40;10.65;;;4.10;99.90;;;;;;5051539;28;20037;-81
2021/01/03 12:52:10;;;;;;;18.25;10.32;;;4.10;99.90;;;;;;5049300;28;20386;-81
2021/01/03 12:54:36;;;;;;;21.63;10.57;;;4.20;99.90;;;;;;5050245;28;20060;-81